Time;durP1;ratioP1;P1;durP2;ratioP2;P2;SDS_P1;SDS_P2;PMS_P1;PMS_P2;Temp;Humidity;BMP_temperature;BMP_pressure;BME280_temperature;BME280_humidity;BME280_pressure;Samples;Min_cycle;Max_cycle;Signal;HPM_P1;HPM_P2
2021/09/18 00:01:27;;;;;;;10.40;9.30;;;;;;;16.77;78.41;100156.59;10275770;28;20442;-59
2021/09/18 00:06:28;;;;;;;9.73;8.82;;;;;;;16.74;78.30;100159.63;10272834;28;20050;-60
2021/09/18 00:11:31;;;;;;;9.95;8.93;;;;;;;16.61;78.33;100146.66;10275954;28;20704;-60
2021/09/18 00:16:32;;;;;;;9.95;8.95;;;;;;;16.66;78.03;100162.28;10260650;28;20556;-59
2021/09/18 00:21:35;;;;;;;9.90;9.00;;;;;;;16.61;78.35;100160.09;10272435;28;20090;-59
2021/09/18 00:26:37;;;;;;;10.13;9.25;;;;;;;16.53;78.63;100166.28;10284591;28;20221;-64
2021/09/18 00:31:38;;;;;;;9.30;8.25;;;;;;;16.57;78.35;100166.78;10279521;28;20097;-61
2021/09/18 00:36:40;;;;;;;9.02;8.13;;;;;;;16.58;78.34;100174.69;10279731;28;20420;-61
2021/09/18 00:41:41;;;;;;;8.75;8.05;;;;;;;16.57;78.18;100164.97;10275828;28;20548;-60
2021/09/18 00:46:45;;;;;;;11.38;8.40;;;;;;;16.51;78.87;100164.75;10282320;28;20070;-60
2021/09/18 00:51:47;;;;;;;;;;;;;;;16.45;79.25;100163.56;10281906;28;20066;-60
2021/09/18 00:56:53;;;;;;;10.00;9.10;;;;;;;16.42;79.20;100162.06;10281204;28;20004;-61
2021/09/18 01:01:55;;;;;;;10.65;9.65;;;;;;;16.40;79.03;100160.53;10283960;28;20085;-60
2021/09/18 01:06:56;;;;;;;9.13;8.30;;;;;;;16.35;79.36;100154.81;10277804;28;20120;-67
2021/09/18 01:11:59;;;;;;;9.80;9.00;;;;;;;16.28;79.50;100148.44;10279873;28;20164;-61
2021/09/18 01:17:01;;;;;;;9.30;8.40;;;;;;;16.22;79.78;100148.06;10279595;28;20047;-61
2021/09/18 01:22:04;;;;;;;9.38;8.48;;;;;;;16.22;80.11;100144.53;10282560;28;20085;-60
2021/09/18 01:27:05;;;;;;;9.68;8.73;;;;;;;16.21;80.27;100148.22;10268065;28;20055;-60
2021/09/18 01:32:07;;;;;;;8.43;7.72;;;;;;;16.24;80.29;100162.19;10278431;28;20061;-62
2021/09/18 01:37:08;;;;;;;8.77;7.97;;;;;;;16.30;79.76;100154.47;10281194;28;20522;-61
2021/09/18 01:42:10;;;;;;;9.23;8.05;;;;;;;16.23;79.19;100149.75;10274481;28;20512;-59
2021/09/18 01:47:11;;;;;;;9.40;8.25;;;;;;;16.22;78.40;100158.81;10268306;28;20316;-61
2021/09/18 01:52:32;;;;;;;9.75;8.85;;;;;;;16.22;78.36;100166.84;10272161;28;20050;-61
2021/09/18 01:57:34;;;;;;;9.95;9.05;;;;;;;16.22;78.03;100158.81;10281329;28;20229;-61
2021/09/18 02:02:36;;;;;;;9.55;8.75;;;;;;;16.11;79.05;100156.44;10281208;28;20070;-60
2021/09/18 02:07:38;;;;;;;9.73;8.80;;;;;;;16.04;79.69;100150.00;10280201;28;20741;-60
2021/09/18 02:12:40;;;;;;;9.20;8.30;;;;;;;16.01;79.87;100148.50;10276898;28;20681;-60
2021/09/18 02:17:42;;;;;;;9.13;8.15;;;;;;;16.00;79.78;100148.66;10282153;28;20443;-61
2021/09/18 02:22:44;;;;;;;9.77;8.88;;;;;;;15.89;80.19;100142.56;10275813;28;20074;-60
2021/09/18 02:27:47;;;;;;;9.10;8.32;;;;;;;15.84;80.23;100134.16;10277719;28;20054;-61
2021/09/18 02:32:49;;;;;;;8.82;8.00;;;;;;;15.81;80.97;100139.84;10272496;28;20051;-60
2021/09/18 02:37:52;;;;;;;12.23;9.18;;;;;;;15.80;80.56;100131.97;10280054;28;20081;-60
2021/09/18 02:42:57;;;;;;;12.57;8.55;;;;;;;15.76;80.92;100136.75;10271947;28;20483;-60
2021/09/18 02:47:59;;;;;;;9.40;8.50;;;;;;;15.71;80.73;100133.72;10277339;28;20101;-59
2021/09/18 02:53:00;;;;;;;10.98;9.98;;;;;;;15.64;80.66;100121.94;10274978;28;20043;-59
2021/09/18 02:58:02;;;;;;;10.43;9.60;;;;;;;15.58;80.74;100111.84;10274283;28;20125;-61
2021/09/18 03:03:04;;;;;;;10.07;9.27;;;;;;;15.66;80.96;100131.53;10266034;28;20054;-61
2021/09/18 03:08:05;;;;;;;9.88;8.98;;;;;;;15.62;80.86;100124.78;10281709;28;20054;-61
2021/09/18 03:13:07;;;;;;;9.95;9.05;;;;;;;15.56;81.42;100131.63;10280934;28;20070;-61
2021/09/18 03:18:09;;;;;;;10.35;9.45;;;;;;;15.50;81.58;100126.06;10278362;28;20046;-60
2021/09/18 03:23:10;;;;;;;10.50;9.52;;;;;;;15.47;81.86;100129.06;10275559;28;20055;-61
2021/09/18 03:28:12;;;;;;;9.80;8.90;;;;;;;15.45;81.88;100136.44;10273837;28;20094;-60
2021/09/18 03:33:13;;;;;;;9.90;9.07;;;;;;;15.43;81.74;100136.56;10277845;28;20065;-62
2021/09/18 03:38:15;;;;;;;10.35;9.55;;;;;;;15.39;82.42;100135.22;10277777;28;20058;-61
2021/09/18 03:43:16;;;;;;;11.00;10.07;;;;;;;15.47;82.53;100131.75;10278868;28;20050;-60
2021/09/18 03:48:18;;;;;;;10.18;9.15;;;;;;;15.51;82.11;100131.28;10276266;28;20060;-61
2021/09/18 03:53:20;;;;;;;11.35;10.25;;;;;;;15.48;82.34;100128.91;10275588;28;20051;-60
2021/09/18 03:58:21;;;;;;;13.93;12.02;;;;;;;15.44;82.40;100122.16;10282029;28;20527;-61
2021/09/18 04:08:32;;;;;;;10.00;9.20;;;;;;;15.42;81.03;100124.19;10205991;28;20049;-57
2021/09/18 04:13:34;;;;;;;11.73;10.63;;;;;;;15.39;81.07;100140.59;10217802;28;20056;-58
2021/09/18 04:18:35;;;;;;;15.55;13.55;;;;;;;15.33;81.61;100139.38;10219626;28;20054;-57
2021/09/18 04:23:37;;;;;;;15.55;13.93;;;;;;;15.26;81.86;100129.44;10219266;28;20524;-56
2021/09/18 04:28:39;;;;;;;13.65;12.23;;;;;;;15.19;82.56;100148.84;10230902;28;20428;-53
2021/09/18 04:33:40;;;;;;;14.10;12.18;;;;;;;15.19;82.65;100140.78;10217854;28;20054;-53
2021/09/18 04:38:42;;;;;;;15.45;13.85;;;;;;;15.23;82.26;100143.16;10217506;28;20062;-58
2021/09/18 04:43:44;;;;;;;19.10;12.70;;;;;;;15.18;82.23;100144.47;10217771;28;20051;-53
2021/09/18 04:48:46;;;;;;;14.65;12.10;;;;;;;15.22;82.04;100144.16;10219159;28;20047;-55
2021/09/18 04:53:47;;;;;;;12.45;10.60;;;;;;;15.25;81.92;100141.16;10218854;28;20138;-55
2021/09/18 04:58:49;;;;;;;15.60;12.60;;;;;;;15.31;82.19;100151.25;10217649;28;20251;-54
2021/09/18 05:03:50;;;;;;;15.88;14.25;;;;;;;15.31;82.17;100153.94;10216322;28;25159;-57
2021/09/18 05:08:52;;;;;;;19.02;15.20;;;;;;;15.14;81.86;100161.03;10224397;28;20340;-59
2021/09/18 05:13:53;;;;;;;16.17;14.48;;;;;;;15.08;82.53;100170.53;10223257;28;20051;-54
2021/09/18 05:18:55;;;;;;;17.27;13.60;;;;;;;15.18;82.21;100165.09;10221025;28;20412;-55
2021/09/18 05:23:57;;;;;;;15.82;13.73;;;;;;;15.19;82.45;100167.59;10219652;28;20102;-58
2021/09/18 05:28:58;;;;;;;14.38;12.68;;;;;;;15.19;82.45;100166.75;10223054;28;20051;-54
2021/09/18 05:34:00;;;;;;;13.27;11.98;;;;;;;15.21;81.79;100170.13;10223444;28;20047;-54
2021/09/18 05:39:02;;;;;;;13.50;11.93;;;;;;;15.19;81.80;100175.66;10222976;28;20531;-62
2021/09/18 05:44:04;;;;;;;13.02;11.75;;;;;;;15.15;81.67;100187.66;10231885;28;20109;-55
2021/09/18 05:49:05;;;;;;;11.93;10.73;;;;;;;15.19;81.79;100186.38;10200857;28;20047;-58
2021/09/18 05:54:07;;;;;;;12.55;11.43;;;;;;;15.17;81.55;100196.38;10201262;28;20102;-59
2021/09/18 05:59:09;;;;;;;11.52;10.48;;;;;;;15.17;81.92;100188.34;10202933;28;20058;-53
2021/09/18 06:04:12;;;;;;;11.87;10.77;;;;;;;15.20;81.55;100198.75;10200887;28;20094;-57
2021/09/18 06:09:13;;;;;;;11.80;10.77;;;;;;;15.26;82.12;100201.84;10205133;28;20051;-53
2021/09/18 06:14:15;;;;;;;11.55;10.35;;;;;;;15.29;81.64;100205.03;10205843;28;20043;-61
2021/09/18 06:19:19;;;;;;;11.32;10.25;;;;;;;15.40;81.38;100184.34;10202689;28;20058;-55
2021/09/18 06:24:21;;;;;;;10.03;8.80;;;;;;;15.42;80.49;100177.81;10202499;28;20055;-55
2021/09/18 06:29:22;;;;;;;9.43;8.52;;;;;;;15.48;79.99;100195.97;10203404;28;20227;-58
2021/09/18 06:34:24;;;;;;;9.57;8.60;;;;;;;15.46;81.15;100197.97;10200875;28;20055;-58
2021/09/18 06:39:25;;;;;;;10.38;9.38;;;;;;;15.58;79.98;100203.06;10202268;28;20043;-58
2021/09/18 06:44:27;;;;;;;12.48;11.27;;;;;;;15.51;80.32;100211.75;10202274;28;20531;-57
2021/09/18 06:49:29;;;;;;;11.68;10.60;;;;;;;15.66;80.52;100221.94;10199864;28;20955;-57
2021/09/18 06:54:33;;;;;;;11.18;10.13;;;;;;;15.83;79.54;100229.09;10201385;28;20059;-60
2021/09/18 06:59:35;;;;;;;12.27;11.10;;;;;;;15.96;78.82;100228.69;10202365;28;20122;-58
2021/09/18 07:04:36;;;;;;;11.75;10.65;;;;;;;16.02;78.16;100217.31;10199963;28;20047;-55
2021/09/18 07:09:38;;;;;;;12.13;10.82;;;;;;;16.09;77.56;100217.47;10202770;28;20055;-55
2021/09/18 07:14:39;;;;;;;13.52;11.88;;;;;;;16.05;78.31;100224.19;10202198;28;20492;-55
2021/09/18 07:19:41;;;;;;;10.95;10.05;;;;;;;16.08;78.33;100221.19;10201066;28;20059;-55
2021/09/18 07:24:42;;;;;;;12.48;11.32;;;;;;;16.10;78.53;100221.88;10201997;28;20070;-55
2021/09/18 07:29:45;;;;;;;11.65;10.38;;;;;;;16.32;77.90;100225.84;10198921;28;20480;-60
2021/09/18 07:34:46;;;;;;;11.68;10.60;;;;;;;16.65;76.54;100227.78;10200640;28;20582;-56
2021/09/18 07:39:48;;;;;;;11.50;9.70;;;;;;;17.02;74.27;100227.38;10200935;28;20055;-56
2021/09/18 07:44:50;;;;;;;13.15;9.90;;;;;;;17.37;73.15;100233.47;10201101;28;21157;-56
2021/09/18 07:49:51;;;;;;;12.93;11.82;;;;;;;17.40;72.21;100234.97;10198572;28;20051;-58
2021/09/18 07:54:53;;;;;;;11.20;10.10;;;;;;;17.77;71.76;100239.81;10202115;28;20054;-56
2021/09/18 08:00:15;;;;;;;12.80;11.50;;;;;;;18.08;70.73;100235.56;10184589;28;20059;-61
2021/09/18 08:05:16;;;;;;;13.13;11.93;;;;;;;18.28;68.75;100236.84;10199923;28;20523;-57
2021/09/18 08:10:18;;;;;;;11.35;10.32;;;;;;;18.52;68.29;100229.66;10216312;28;20051;-56
2021/09/18 08:15:20;;;;;;;12.07;10.90;;;;;;;18.79;67.29;100243.69;10200048;28;21119;-57
2021/09/18 08:20:21;;;;;;;10.65;9.55;;;;;;;18.84;66.66;100242.13;10214089;28;20782;-56
2021/09/18 08:25:23;;;;;;;10.85;9.85;;;;;;;18.97;66.77;100241.56;10199678;28;20047;-56
2021/09/18 08:30:26;;;;;;;11.70;10.70;;;;;;;19.20;65.68;100235.34;10199973;28;20156;-55
2021/09/18 08:35:27;;;;;;;12.18;11.07;;;;;;;19.37;64.93;100230.66;10208729;28;20066;-56
2021/09/18 08:40:35;;;;;;;11.65;10.65;;;;;;;19.68;64.33;100230.56;10202657;28;20040;-56
2021/09/18 08:45:37;;;;;;;12.27;11.20;;;;;;;20.06;62.51;100235.91;10203760;28;20074;-57
2021/09/18 08:50:39;;;;;;;11.27;10.18;;;;;;;20.30;63.51;100242.91;10211812;28;20051;-55
2021/09/18 08:55:40;;;;;;;13.05;11.95;;;;;;;20.36;63.03;100238.63;10205332;28;20055;-56
2021/09/18 09:00:44;;;;;;;15.07;13.27;;;;;;;20.45;63.22;100244.75;10205138;28;20055;-55
2021/09/18 09:05:46;;;;;;;12.07;11.05;;;;;;;20.95;61.99;100255.78;10205035;28;20078;-56
2021/09/18 09:10:48;;;;;;;14.15;12.82;;;;;;;21.38;60.96;100239.53;10201313;28;20147;-57
2021/09/18 09:16:04;;;;;;;13.75;12.65;;;;;;;21.89;59.65;100239.34;10205553;28;20088;-56
2021/09/18 09:21:20;;;;;;;16.45;14.95;;;;;;;22.37;56.86;100229.66;10204810;28;20047;-55
2021/09/18 09:26:21;;;;;;;16.85;15.05;;;;;;;22.75;56.86;100240.81;10203717;28;20509;-56
2021/09/18 09:31:29;;;;;;;21.38;19.17;;;;;;;23.36;54.30;100235.53;10205902;28;20114;-57
2021/09/18 09:36:37;;;;;;;22.38;20.17;;;;;;;24.02;51.13;100222.97;10192867;28;20074;-57
2021/09/18 09:41:42;;;;;;;20.17;18.25;;;;;;;24.54;50.34;100226.56;10201456;28;20195;-56
2021/09/18 09:47:09;;;;;;;21.92;19.85;;;;;;;25.10;48.42;100241.38;10186726;28;20051;-57
2021/09/18 09:52:21;;;;;;;24.33;21.92;;;;;;;25.51;45.91;100231.03;10187905;28;20134;-56
2021/09/18 09:57:22;;;;;;;24.67;22.23;;;;;;;25.85;44.96;100223.38;10198386;28;20142;-57
2021/09/18 10:02:24;;;;;;;21.23;19.33;;;;;;;25.99;44.98;100216.75;10201869;28;20066;-57
2021/09/18 10:07:26;;;;;;;21.35;19.33;;;;;;;28.29;41.11;100217.50;10244667;23;20497;-72
2021/09/18 10:12:27;;;;;;;19.93;18.23;;;;;;;30.45;36.71;100214.78;10292105;28;20146;-73
2021/09/18 10:17:32;;;;;;;21.80;19.80;;;;;;;31.44;33.64;100217.44;10270119;28;20137;-73
2021/09/18 10:28:17;;;;;;;19.60;17.90;;;;;;;30.41;35.73;100208.97;10339972;28;20610;-70
2021/09/18 10:33:31;;;;;;;22.50;20.48;;;;;;;30.70;34.89;100205.16;10296391;28;20069;-71
2021/09/18 10:38:35;;;;;;;26.33;23.92;;;;;;;32.84;31.13;100197.75;10323073;28;20054;-72
2021/09/18 10:43:39;;;;;;;21.25;19.13;;;;;;;35.76;26.44;100192.06;10330395;28;20164;-72
2021/09/18 10:48:47;;;;;;;18.50;16.88;;;;;;;36.75;24.68;100189.75;10331072;28;20049;-72
2021/09/18 10:54:09;;;;;;;19.35;17.70;;;;;;;38.12;23.09;100192.34;10297094;28;20109;-71
2021/09/18 10:59:11;;;;;;;20.42;18.67;;;;;;;39.34;21.08;100185.09;10299000;28;20108;-72
2021/09/18 11:04:37;;;;;;;18.67;16.95;;;;;;;40.43;20.11;100166.97;10301699;28;20117;-72
2021/09/18 11:09:48;;;;;;;17.33;15.93;;;;;;;41.59;19.62;100170.13;10388824;28;20041;-72
2021/09/18 11:15:08;;;;;;;18.95;17.05;;;;;;;41.46;18.73;100169.19;10352262;28;20321;-73
2021/09/18 11:20:20;;;;;;;15.98;14.77;;;;;;;41.80;18.37;100170.22;10326203;28;20563;-72
2021/09/18 11:25:37;;;;;;;15.48;14.18;;;;;;;42.21;17.79;100168.66;10299604;28;20069;-72
2021/09/18 11:30:52;;;;;;;14.02;12.77;;;;;;;42.98;16.76;100161.13;10335887;28;20128;-73
2021/09/18 11:35:58;;;;;;;12.13;11.02;;;;;;;43.51;16.85;100159.44;10330051;28;20067;-74
2021/09/18 11:41:12;;;;;;;13.07;12.07;;;;;;;43.67;16.42;100158.72;10324066;28;20056;-74
2021/09/18 11:46:24;;;;;;;11.23;10.23;;;;;;;42.41;17.40;100157.81;10316430;28;20188;-73
2021/09/18 11:51:26;;;;;;;14.57;13.38;;;;;;;36.96;22.51;100149.50;10328988;28;20047;-74
2021/09/18 11:56:27;;;;;;;10.57;9.57;;;;;;;39.46;20.30;100151.09;10331855;28;20069;-74
2021/09/18 12:01:29;;;;;;;8.45;7.65;;;;;;;42.71;16.62;100132.59;10338616;28;20077;-76
2021/09/18 12:06:31;;;;;;;7.03;6.43;;;;;;;44.64;15.39;100137.34;10317173;28;20058;-73
2021/09/18 12:11:37;;;;;;;6.75;6.15;;;;;;;45.59;13.64;100118.97;10325603;28;20600;-73
2021/09/18 12:16:38;;;;;;;7.25;6.72;;;;;;;45.81;13.17;100109.09;10341167;28;20046;-72
2021/09/18 12:21:40;;;;;;;5.32;4.93;;;;;;;46.48;12.96;100110.09;10346210;28;20115;-74
2021/09/18 12:26:42;;;;;;;5.97;5.47;;;;;;;46.46;12.39;100115.31;10341719;28;20137;-73
2021/09/18 12:31:47;;;;;;;4.97;4.57;;;;;;;47.01;12.05;100099.09;10346407;28;20129;-74
2021/09/18 12:36:49;;;;;;;4.25;3.95;;;;;;;47.07;11.71;100094.78;10330596;28;20141;-73
2021/09/18 12:42:02;;;;;;;4.55;4.15;;;;;;;46.78;12.39;100092.63;10339725;28;20237;-75
2021/09/18 12:47:04;;;;;;;4.82;4.47;;;;;;;46.66;12.58;100091.59;10359833;28;20069;-73
2021/09/18 12:52:06;;;;;;;4.68;4.28;;;;;;;46.19;12.36;100092.66;10344054;28;20046;-74
2021/09/18 12:57:07;;;;;;;4.35;3.95;;;;;;;45.36;12.51;100088.69;10339676;28;20048;-73
2021/09/18 13:02:10;;;;;;;5.03;4.63;;;;;;;44.44;13.63;100082.22;10302584;28;20122;-73
2021/09/18 13:07:12;;;;;;;4.75;4.38;;;;;;;43.29;14.24;100087.03;10300147;28;20054;-73
2021/09/18 13:12:15;;;;;;;5.30;4.60;;;;;;;41.76;16.07;100088.22;10295582;28;20413;-75
2021/09/18 13:17:22;;;;;;;4.70;4.28;;;;;;;42.54;15.88;100083.19;10349373;28;20129;-73
2021/09/18 13:22:27;;;;;;;7.15;6.65;;;;;;;42.34;16.51;100073.66;10334804;28;20061;-74
2021/09/18 13:27:30;;;;;;;6.65;6.05;;;;;;;38.20;20.37;100083.28;10333532;28;20052;-74
2021/09/18 13:32:31;;;;;;;7.55;6.90;;;;;;;34.37;25.49;100079.06;10340485;28;20065;-72
2021/09/18 13:37:33;;;;;;;7.90;7.22;;;;;;;32.07;27.33;100080.75;10337603;28;20081;-73
2021/09/18 13:42:36;;;;;;;7.50;6.90;;;;;;;30.94;29.24;100071.88;10345597;28;20052;-74
2021/09/18 13:47:38;;;;;;;6.10;5.50;;;;;;;31.10;29.48;100066.50;10344735;28;20140;-70
2021/09/18 13:52:40;;;;;;;6.93;6.43;;;;;;;30.86;29.38;100066.84;10327372;28;20521;-73
2021/09/18 13:57:42;;;;;;;7.13;6.63;;;;;;;30.66;30.13;100057.38;10337995;28;20147;-69
2021/09/18 14:02:43;;;;;;;6.72;6.13;;;;;;;30.21;30.62;100055.81;10339721;28;20041;-71
2021/09/18 14:07:45;;;;;;;5.78;5.28;;;;;;;29.65;31.52;100047.75;10314828;28;20060;-70
2021/09/18 14:12:47;;;;;;;6.57;6.05;;;;;;;29.27;32.09;100058.50;10297265;28;20556;-69
2021/09/18 14:17:48;;;;;;;8.07;7.32;;;;;;;28.88;33.23;100050.19;10299810;28;20065;-71
2021/09/18 14:22:50;;;;;;;7.07;6.57;;;;;;;28.55;33.92;100051.84;10298542;28;20074;-71
2021/09/18 14:27:51;;;;;;;6.15;5.55;;;;;;;28.29;33.09;100047.81;10298470;28;20136;-69
2021/09/18 14:32:53;;;;;;;5.43;4.93;;;;;;;27.94;34.45;100040.56;10307093;28;20145;-71
2021/09/18 14:37:55;;;;;;;6.60;6.03;;;;;;;27.64;34.68;100029.88;10301256;28;20138;-71
2021/09/18 14:42:57;;;;;;;5.90;5.35;;;;;;;27.29;35.78;100033.44;10306010;28;20133;-71
2021/09/18 14:47:58;;;;;;;5.40;5.00;;;;;;;26.94;36.14;100035.13;10307509;28;20077;-70
2021/09/18 14:52:59;;;;;;;4.90;4.40;;;;;;;26.55;37.11;100028.41;10356915;28;20132;-71
2021/09/18 14:58:11;;;;;;;5.53;5.10;;;;;;;26.25;37.31;100037.47;10347895;28;20065;-70
2021/09/18 15:03:12;;;;;;;5.00;4.50;;;;;;;26.16;37.57;100030.69;10349495;28;20042;-70
2021/09/18 15:08:14;;;;;;;4.13;3.83;;;;;;;25.98;38.03;100017.91;10347394;28;20057;-69
2021/09/18 15:13:15;;;;;;;3.85;3.55;;;;;;;25.84;38.13;100028.97;10344856;28;20137;-70
2021/09/18 15:18:17;;;;;;;4.25;3.75;;;;;;;25.67;38.32;100030.66;10350178;28;20484;-69
2021/09/18 15:23:18;;;;;;;4.10;3.80;;;;;;;25.54;38.87;100029.75;10349344;28;20137;-70
2021/09/18 15:28:21;;;;;;;4.57;4.18;;;;;;;25.25;39.21;100025.84;10365863;28;20050;-69
2021/09/18 15:33:23;;;;;;;3.88;3.58;;;;;;;25.15;39.49;100020.13;10350439;28;20054;-69
2021/09/18 15:38:24;;;;;;;4.37;4.07;;;;;;;24.80;39.84;100026.09;10364903;28;20069;-69
2021/09/18 15:43:28;;;;;;;4.28;3.88;;;;;;;24.60;40.55;100027.09;10353359;28;20132;-69
2021/09/18 15:48:30;;;;;;;4.55;4.15;;;;;;;24.52;40.48;100021.91;10340226;28;20460;-70
2021/09/18 15:53:32;;;;;;;4.57;4.15;;;;;;;24.46;40.44;100022.78;10310915;28;20118;-70
2021/09/18 15:58:35;;;;;;;4.13;3.53;;;;;;;24.29;40.91;100017.88;10309072;28;20054;-69
2021/09/18 16:03:38;;;;;;;4.60;4.07;;;;;;;24.17;41.75;100014.22;10311161;28;20133;-69
2021/09/18 16:08:40;;;;;;;3.97;3.58;;;;;;;24.03;41.74;100015.31;10350458;28;20303;-69
2021/09/18 16:13:41;;;;;;;3.80;3.50;;;;;;;23.86;42.18;100018.53;10364323;28;20056;-69
2021/09/18 16:18:43;;;;;;;3.30;3.10;;;;;;;23.57;42.67;100009.88;10349541;28;20070;-69
2021/09/18 16:23:44;;;;;;;3.67;3.40;;;;;;;23.46;42.98;100002.38;10346688;28;20105;-69
2021/09/18 16:28:46;;;;;;;3.60;3.30;;;;;;;23.28;43.24;100001.19;10347441;28;20065;-70
2021/09/18 16:33:47;;;;;;;3.45;3.15;;;;;;;23.05;43.94;99995.38;10362300;28;20050;-69
2021/09/18 16:38:49;;;;;;;6.10;4.63;;;;;;;23.01;44.51;100007.69;10346060;28;20104;-70
2021/09/18 16:43:50;;;;;;;5.32;4.80;;;;;;;22.87;44.96;100013.13;10360965;28;20081;-69
2021/09/18 16:48:52;;;;;;;5.10;4.68;;;;;;;22.69;45.36;100012.94;10334302;28;20097;-70
2021/09/18 16:53:54;;;;;;;6.10;5.50;;;;;;;22.59;45.69;100002.50;10319819;28;20065;-70
2021/09/18 16:58:55;;;;;;;3.63;3.35;;;;;;;22.47;46.19;100010.41;10325240;28;20054;-70
2021/09/18 17:03:56;;;;;;;4.10;3.70;;;;;;;22.27;46.62;100001.41;10361608;28;20108;-71
2021/09/18 17:08:58;;;;;;;4.57;4.20;;;;;;;22.14;46.98;100005.75;10359613;28;20042;-71
2021/09/18 17:14:00;;;;;;;6.90;5.68;;;;;;;22.03;47.57;100017.19;10356659;28;20252;-69
2021/09/18 17:19:02;;;;;;;11.32;10.05;;;;;;;21.89;48.17;100017.16;10357891;28;20082;-69
2021/09/18 17:24:04;;;;;;;11.35;10.15;;;;;;;21.83;48.80;100025.28;10352617;28;20531;-70
2021/09/18 17:29:05;;;;;;;9.35;8.45;;;;;;;21.64;49.25;100024.16;10340583;28;20053;-69
2021/09/18 17:34:06;;;;;;;7.30;6.57;;;;;;;21.52;49.84;100023.88;10330954;28;20066;-69
2021/09/18 17:39:08;;;;;;;6.22;5.05;;;;;;;21.43;50.31;100020.47;10315186;28;20060;-70
2021/09/18 17:44:09;;;;;;;4.35;3.90;;;;;;;21.29;50.68;100014.16;10316483;28;20467;-69
2021/09/18 17:49:11;;;;;;;4.43;3.10;;;;;;;21.18;50.25;100023.69;10316230;28;20082;-71
2021/09/18 17:54:12;;;;;;;3.97;2.90;;;;;;;21.11;50.44;100032.78;10317574;28;20067;-70
2021/09/18 17:59:14;;;;;;;2.75;2.35;;;;;;;20.98;50.66;100028.94;10337156;22;20122;-67
2021/09/18 18:04:16;;;;;;;3.33;2.40;;;;;;;20.88;50.78;100035.72;10310714;28;20133;-69
2021/09/18 18:09:18;;;;;;;3.55;2.75;;;;;;;20.80;50.65;100037.53;10284167;28;20074;-70
2021/09/18 18:14:19;;;;;;;2.40;2.08;;;;;;;20.70;50.81;100031.63;10269564;28;20049;-71
2021/09/18 18:19:24;;;;;;;2.92;2.72;;;;;;;20.61;50.58;100065.22;10315621;28;20059;-69
2021/09/18 18:24:25;;;;;;;4.05;3.60;;;;;;;20.46;50.59;100058.03;10312676;28;20044;-69
2021/09/18 18:29:27;;;;;;;3.95;3.55;;;;;;;20.31;50.79;100054.53;10311545;28;20129;-70
2021/09/18 18:34:28;;;;;;;3.65;3.20;;;;;;;20.16;51.47;100062.69;10312017;28;20581;-68
2021/09/18 18:39:29;;;;;;;3.42;3.13;;;;;;;19.95;52.14;100055.38;10311580;28;20073;-68
2021/09/18 18:44:31;;;;;;;2.67;2.42;;;;;;;19.99;52.26;100078.28;10312776;28;20050;-70
2021/09/18 18:49:32;;;;;;;4.00;3.10;;;;;;;19.91;52.70;100073.03;10304149;28;20065;-68
2021/09/18 18:54:38;;;;;;;3.65;3.10;;;;;;;19.84;53.80;100085.59;10298555;28;20047;-69
2021/09/18 18:59:41;;;;;;;2.33;2.13;;;;;;;19.74;54.03;100089.41;10310386;28;20066;-70
2021/09/18 19:04:42;;;;;;;3.72;2.30;;;;;;;19.69;54.34;100090.97;10303912;28;20073;-69
2021/09/18 19:09:44;;;;;;;2.22;1.75;;;;;;;19.59;54.23;100080.44;10314311;28;20051;-69
2021/09/18 19:14:46;;;;;;;2.47;1.73;;;;;;;19.57;54.65;100085.19;10308404;28;20051;-70
2021/09/18 19:19:47;;;;;;;2.53;1.63;;;;;;;19.47;54.54;100085.50;10294918;28;20093;-70
2021/09/18 19:24:51;;;;;;;2.85;1.60;;;;;;;19.37;54.49;100091.16;10298202;28;20576;-71
2021/09/18 19:29:53;;;;;;;2.10;1.50;;;;;;;19.30;54.94;100101.00;10309673;28;20084;-69
2021/09/18 19:34:55;;;;;;;1.73;1.30;;;;;;;19.24;55.24;100101.75;10303194;28;20077;-71
2021/09/18 19:39:56;;;;;;;1.67;1.30;;;;;;;19.25;55.43;100103.44;10299942;28;20576;-69
2021/09/18 19:44:57;;;;;;;2.75;1.60;;;;;;;19.13;55.74;100099.50;10306394;28;20046;-70
2021/09/18 19:49:59;;;;;;;2.85;1.70;;;;;;;19.10;56.00;100106.09;10303538;28;20060;-69
2021/09/18 19:55:01;;;;;;;2.13;1.92;;;;;;;18.99;56.22;100102.00;10277484;28;20360;-69
2021/09/18 20:00:03;;;;;;;1.90;1.55;;;;;;;18.95;56.47;100119.56;10298776;28;20070;-69
2021/09/18 20:05:05;;;;;;;2.50;2.30;;;;;;;18.85;56.57;100110.84;10305386;28;20066;-70
2021/09/18 20:10:08;;;;;;;4.72;3.22;;;;;;;18.82;56.22;100112.03;10300031;28;20129;-68
2021/09/18 20:15:11;;;;;;;4.25;3.92;;;;;;;18.80;56.76;100118.63;10308682;28;20050;-69
2021/09/18 20:20:14;;;;;;;2.65;2.45;;;;;;;18.80;57.03;100111.38;10294005;28;20046;-69
2021/09/18 20:25:15;;;;;;;2.47;2.28;;;;;;;18.77;56.89;100119.81;10295129;28;20152;-70
2021/09/18 20:30:16;;;;;;;3.63;2.92;;;;;;;18.69;56.93;100109.09;10295260;28;20063;-70
2021/09/18 20:35:18;;;;;;;2.75;2.42;;;;;;;18.64;57.63;100106.94;10285007;28;20046;-70
2021/09/18 20:40:20;;;;;;;3.70;2.33;;;;;;;18.52;57.89;100100.28;10267555;28;20300;-69
2021/09/18 20:45:21;;;;;;;3.05;2.75;;;;;;;18.43;58.25;100087.91;10297393;28;20054;-69
2021/09/18 20:50:22;;;;;;;3.35;3.05;;;;;;;18.46;58.11;100098.31;10305952;28;20076;-69
2021/09/18 20:55:24;;;;;;;2.55;2.35;;;;;;;18.43;58.54;100099.50;10300967;28;20110;-68
2021/09/18 21:00:25;;;;;;;3.03;2.13;;;;;;;18.36;58.54;100093.19;10310349;28;20145;-69
2021/09/18 21:05:27;;;;;;;2.65;2.40;;;;;;;18.33;59.34;100106.97;10301770;28;20066;-70
2021/09/18 21:10:28;;;;;;;4.03;3.30;;;;;;;18.23;59.47;100103.69;10267301;28;20070;-71
2021/09/18 21:15:30;;;;;;;4.43;2.45;;;;;;;18.13;59.87;100099.34;10305461;28;20141;-71
2021/09/18 21:20:32;;;;;;;3.28;2.97;;;;;;;18.08;60.25;100092.84;10306707;28;20054;-69
2021/09/18 21:25:33;;;;;;;3.28;2.80;;;;;;;17.99;60.09;100100.94;10303482;28;20859;-69
2021/09/18 21:30:35;;;;;;;3.08;2.60;;;;;;;17.89;60.92;100108.38;10296085;28;20138;-72
2021/09/18 21:35:36;;;;;;;3.42;3.13;;;;;;;17.85;61.22;100097.09;10306040;28;21235;-70
2021/09/18 21:40:37;;;;;;;2.70;2.30;;;;;;;17.82;61.10;100094.75;10299506;28;20046;-69
2021/09/18 21:45:39;;;;;;;2.53;2.17;;;;;;;17.84;60.98;100097.28;10301681;28;20653;-68
2021/09/18 21:50:41;;;;;;;2.88;2.30;;;;;;;17.72;61.06;100093.28;10308750;28;20425;-70
2021/09/18 21:55:42;;;;;;;2.80;1.60;;;;;;;17.69;61.41;100093.66;10312302;28;20143;-71
2021/09/18 22:00:56;;;;;;;3.55;2.40;;;;;;;17.65;62.00;100091.31;10303460;28;20115;-71
2021/09/18 22:05:57;;;;;;;2.80;1.85;;;;;;;17.63;61.71;100085.22;10290253;28;20046;-69
2021/09/18 22:10:59;;;;;;;2.65;1.95;;;;;;;17.63;61.92;100087.09;10276416;28;20146;-68
2021/09/18 22:16:00;;;;;;;2.38;1.85;;;;;;;17.56;62.04;100091.50;10263204;28;20101;-71
2021/09/18 22:21:05;;;;;;;1.80;1.50;;;;;;;17.53;62.26;100092.66;10278024;28;20058;-68
2021/09/18 22:26:09;;;;;;;2.25;1.50;;;;;;;17.47;62.27;100082.59;10269420;28;20102;-70
2021/09/18 22:31:12;;;;;;;2.75;2.13;;;;;;;17.39;62.43;100091.53;10266658;28;20130;-70
2021/09/18 22:36:14;;;;;;;1.90;1.80;;;;;;;17.27;62.55;100082.97;10262068;28;20058;-69
2021/09/18 22:41:17;;;;;;;2.20;1.77;;;;;;;17.21;63.17;100078.28;10265560;28;20126;-70
2021/09/18 22:46:18;;;;;;;1.70;1.50;;;;;;;17.11;63.47;100085.69;10284257;28;20133;-70
2021/09/18 22:51:20;;;;;;;2.72;2.25;;;;;;;17.11;63.63;100093.75;10310678;28;20065;-69
2021/09/18 22:56:21;;;;;;;2.20;1.55;;;;;;;17.07;63.86;100092.41;10309317;28;20130;-68
2021/09/18 23:01:23;;;;;;;2.90;1.92;;;;;;;16.95;64.25;100090.09;10313054;28;20065;-67
2021/09/18 23:06:24;;;;;;;2.40;1.80;;;;;;;16.86;64.55;100085.69;10273193;28;20051;-68
2021/09/18 23:11:26;;;;;;;3.33;1.50;;;;;;;16.84;64.51;100082.31;10270243;28;20086;-68